createdAt,value
2022-11-05T00:19:36.808Z,98469.75
2022-11-05T00:39:39.012Z,98500.97
2022-11-05T00:59:40.946Z,98511.88
2022-11-05T01:19:43.002Z,98557.03
2022-11-05T01:39:44.763Z,98514.78
2022-11-05T01:59:46.882Z,98493.94
2022-11-05T02:19:48.510Z,98488.25
2022-11-05T02:39:50.788Z,98494.88
2022-11-05T02:59:52.187Z,98483.97
2022-11-05T03:19:54.794Z,98500.25
2022-11-05T03:39:56.441Z,98506.97
2022-11-05T03:59:59.069Z,98518.00
2022-11-05T04:20:00.808Z,98495.97
2022-11-05T04:40:02.702Z,98539.47
2022-11-05T05:00:07.872Z,98583.00
2022-11-05T05:20:12.184Z,98582.69
2022-11-05T05:40:14.054Z,98599.66
2022-11-05T06:00:16.078Z,98647.00
2022-11-05T06:20:17.564Z,98678.13
2022-11-05T06:40:20.035Z,98686.31
2022-11-05T07:00:21.642Z,98713.38
2022-11-05T07:20:23.767Z,98716.91
2022-11-05T07:40:25.337Z,98722.81
2022-11-05T08:00:27.706Z,98759.84
2022-11-05T08:20:29.396Z,98764.00
2022-11-05T08:40:31.814Z,98756.59
2022-11-05T09:00:33.233Z,98774.09
2022-11-05T09:20:35.338Z,98795.91
2022-11-05T09:40:36.965Z,98789.63
2022-11-05T10:00:39.428Z,98778.63
2022-11-05T10:20:41.082Z,98809.84
2022-11-05T10:40:43.117Z,98823.13
2022-11-05T11:00:45.079Z,98850.25
2022-11-05T11:20:47.254Z,98849.19
2022-11-05T11:40:48.870Z,98860.91
2022-11-05T12:00:51.331Z,98855.59
2022-11-05T12:20:57.944Z,98869.16
2022-11-05T12:41:00.769Z,98892.38
2022-11-05T13:01:02.794Z,98894.44
2022-11-05T13:21:05.166Z,98912.91
2022-11-05T13:41:06.962Z,98937.25
2022-11-05T14:01:09.465Z,98962.38
2022-11-05T14:21:11.053Z,98987.19
2022-11-05T14:41:12.933Z,99009.53
2022-11-05T15:01:14.406Z,99017.50
2022-11-05T15:21:16.833Z,99040.47
2022-11-05T15:41:18.399Z,99043.34
2022-11-05T16:01:20.651Z,99065.03
2022-11-05T16:21:22.169Z,99074.09
2022-11-05T16:41:24.619Z,99108.13
2022-11-05T17:01:26.336Z,99120.13
2022-11-05T17:21:28.372Z,99148.13
2022-11-05T17:41:30.200Z,99159.72
2022-11-05T18:01:32.177Z,99177.50
2022-11-05T18:21:33.662Z,99184.81
2022-11-05T18:41:36.117Z,99201.91
2022-11-05T19:01:37.898Z,99221.25
2022-11-05T19:21:42.399Z,99246.81
2022-11-05T19:41:44.456Z,99270.75
2022-11-05T20:01:46.862Z,99275.94
2022-11-05T20:21:48.638Z,99296.94
2022-11-05T20:41:50.822Z,99301.88
2022-11-05T21:01:52.744Z,99314.47
2022-11-05T21:21:55.010Z,99323.63
2022-11-05T21:41:56.854Z,99335.28
2022-11-05T22:01:59.109Z,99332.53
2022-11-05T22:22:01.075Z,99339.38
2022-11-05T22:42:08.205Z,99335.75
2022-11-05T23:02:10.529Z,99359.69
2022-11-05T23:22:12.937Z,99351.88
2022-11-05T23:42:14.966Z,99354.38
